aviador You're here:

ZYTX Decoded Metar

SHENYANG/TAOKIAN in CHINA
Report Time2017-10-17 20:00:00
UTC Time2017-10-17 20:24:45
Flight Rules mvfr MVFR
Wind030° at 4 kt
W.Decomp.*RWY 06: 3.7 kt HW 1.5 kt LCW
W.Rank030° ranks 16
Current wind is below 030° avg. (6.6)
Visibility6000 m
Phenomena:N/A
Clouds:N/A
Expected CloudBase > 2,000 ft AGL from Temp-Dew spread
CeilingNone
Temp04°C (ISA -11)
Dew Point-1°C (70% RH)
AAT0.4°C
QNH1025 hPa
Density Alt-1,519 ft
Elevation115 ft
Report Wrong Elevation
Raw Report
ZYTX 172000Z 03002MPS 6000 NSC 04/M01 Q1025 NOSIG=

Extra information for ZYTX:More info

Metar Taf Metar & Taf Last 4 Metars F.Rules Stats Wind Profile Meteogram Temp Stats Airport Information Weather charts Add Link Nearby VenuesMetar ALERT Operation Metar Decoded Social comments